Data for 12/10/2017

Time Sea-Level Adjusted Pressure Absolute Pressure Temperature Relative Humidity Dew Point   
(mb) (inHg) (mb) (inHg) (C) (F) (%) (C) (F)
00:05 1032 30.47 861 25.43 -1.2 29.8 52 -9.8 14.4
00:10 1032 30.47 861 25.43 -1.4 29.4 54 -9.6 14.7
00:15 1032 30.47 862 25.45 -2.1 28.2 55 -10 14
00:20 1032 30.47 862 25.45 -1.9 28.7 54 -9.9 14.2
00:25 1032 30.47 862 25.45 -2.6 27.3 56 -10.2 13.6
00:30 1032 30.47 862 25.45 -2.7 27.2 57 -10.1 13.8
00:35 1032 30.47 862 25.45 -2.2 28.1 54 -10.2 13.6
00:40 1032 30.47 862 25.45 -2.1 28.3 57 -9.4 15
00:45 1032 30.47 862 25.45 -2.5 27.4 57 -10 13.9
00:50 1032 30.47 862 25.45 -2.6 27.4 55 -10.4 13.4
00:55 1032 30.47 861 25.43 -2.9 26.8 59 -9.9 14.2
01:00 1032 30.47 862 25.45 -2.9 26.8 57 -10.1 13.8
01:05 1032 30.47 862 25.45 -3.3 26.1 59 -10.2 13.7
01:10 1032 30.47 862 25.45 -3.2 26.3 56 -10.7 12.7
01:15 1032 30.47 862 25.45 -2.5 27.4 54 -10.5 13.1
01:20 1032 30.47 862 25.45 -2.5 27.5 54 -10.5 13.1
01:25 1032 30.47 862 25.45 -1.9 28.6 50 -10.9 12.4
01:30 1032 30.47 862 25.45 -1.7 29 52 -10.3 13.4
01:35 1032 30.47 862 25.45 -1.7 28.9 50 -10.7 12.7
01:40 1032 30.47 862 25.45 -1.4 29.4 49 -10.9 12.4
01:45 1032 30.47 862 25.45 -1.4 29.4 50 -10.6 12.9
01:50 1032 30.47 862 25.45 -2 28.3 52 -10.5 13
01:55 1032 30.47 862 25.45 -2.7 27.1 54 -10.8 12.5
02:00 1032 30.47 862 25.45 -3.1 26.5 56 -10.6 12.9
02:05 1032 30.47 862 25.45 -3 26.6 53 -11.2 11.8
02:10 1032 30.47 862 25.45 -2.5 27.5 52 -11.1 11.9
02:15 1032 30.47 862 25.45 -2.4 27.6 51 -11.2 11.8
02:20 1032 30.47 862 25.45 -2.6 27.3 51 -11.3 11.7
02:25 1032 30.47 862 25.45 -2.6 27.3 51 -11.3 11.6
02:30 1032 30.47 862 25.45 -2.5 27.5 50 -11.5 11.3
02:35 1032 30.47 862 25.45 -2.6 27.4 51 -11.3 11.6
02:40 1032 30.47 862 25.45 -2.8 27 50 -11.7 10.9
02:45 1032 30.47 862 25.45 -2.8 27 54 -11 12.3
02:50 1033 30.5 862 25.45 -2.7 27.2 51 -11.4 11.5
02:55 1033 30.5 862 25.45 -1.8 28.7 49 -11.2 11.9
03:00 1032 30.47 862 25.45 -2.1 28.2 53 -10.4 13.3
03:05 1032 30.47 862 25.45 -2.8 26.9 54 -10.9 12.4
03:10 1032 30.47 862 25.45 -3.4 25.9 55 -11.3 11.7
03:15 1032 30.47 862 25.45 -3 26.6 54 -11 12.2
03:20 1032 30.47 862 25.45 -3.5 25.7 58 -10.6 12.9
03:25 1032 30.47 861 25.43 -3.8 25.2 56 -11.3 11.7
03:30 1032 30.47 861 25.43 -2.9 26.8 51 -11.6 11.1
03:35 1032 30.47 861 25.43 -1.8 28.8 47 -11.7 10.9
03:40 1032 30.47 861 25.43 -1.1 30 46 -11.4 11.5
03:45 1032 30.47 861 25.43 -1 30.2 45 -11.5 11.3
03:50 1032 30.47 861 25.43 -1 30.2 45 -11.4 11.5
03:55 1032 30.47 861 25.43 -1 30.3 45 -11.4 11.5
04:00 1032 30.47 861 25.43 -1.2 29.8 48 -10.9 12.4
04:05 1032 30.47 861 25.43 -2.7 27.2 53 -11.1 12.1
04:10 1032 30.47 861 25.43 -3.3 26.1 52 -11.9 10.6
04:15 1032 30.47 861 25.43 -3.5 25.7 54 -11.6 11.1
04:20 1032 30.47 861 25.43 -3.7 25.4 55 -11.4 11.4
04:25 1032 30.47 861 25.43 -4 24.8 56 -11.5 11.2
04:30 1032 30.47 861 25.43 -4.2 24.5 58 -11.3 11.6
04:35 1031 30.45 861 25.43 -3.9 25 56 -11.5 11.4
04:40 1031 30.45 861 25.43 -3.4 26 53 -11.6 11.1
04:45 1031 30.45 861 25.43 -3 26.6 51 -11.9 10.6
04:50 1031 30.45 861 25.43 -2.6 27.3 49 -11.9 10.6
04:55 1031 30.45 861 25.43 -2.5 27.5 49 -11.8 10.8
05:00 1031 30.45 861 25.43 -2.4 27.6 48 -11.9 10.6
05:05 1031 30.45 861 25.43 -2.2 28 47 -12.1 10.2
05:10 1031 30.45 860 25.4 -1.9 28.6 47 -11.8 10.8
05:15 1031 30.45 861 25.43 -2.4 27.7 50 -11.6 11.2
05:20 1032 30.47 861 25.43 -2.7 27.2 50 -11.8 10.7
05:25 1032 30.47 861 25.43 -2.3 27.8 48 -12 10.4
05:30 1032 30.47 861 25.43 -1.8 28.8 47 -11.6 11
05:35 1032 30.47 861 25.43 -2.5 27.6 50 -11.4 11.4
05:40 1032 30.47 861 25.43 -3.3 26 53 -11.7 11
05:45 1032 30.47 861 25.43 -3 26.7 52 -11.6 11.2
05:50 1032 30.47 861 25.43 -3 26.7 54 -11.1 12.1
05:55 1032 30.47 861 25.43 -3.2 26.2 53 -11.5 11.3
06:00 1032 30.47 861 25.43 -2.7 27.1 50 -11.7 10.9
06:05 1032 30.47 861 25.43 -4.2 24.5 58 -11.2 11.9
06:10 1032 30.47 861 25.43 -4.6 23.6 59 -11.5 11.2
06:15 1032 30.47 861 25.43 -3.9 25 54 -12 10.5
06:20 1032 30.47 861 25.43 -3.8 25.2 56 -11.4 11.6
06:25 1032 30.47 861 25.43 -4.1 24.6 54 -12.1 10.3
06:30 1032 30.47 861 25.43 -3.1 26.4 47 -13 8.7
06:35 1032 30.47 861 25.43 -2.7 27.2 52 -11.2 11.8
06:40 1032 30.47 861 25.43 -4.2 24.4 53 -12.4 9.7
06:45 1032 30.47 861 25.43 -4.1 24.7 53 -12.4 9.7
06:50 1032 30.47 861 25.43 -4.3 24.2 56 -11.8 10.8
06:55 1032 30.47 861 25.43 -4.6 23.8 56 -12 10.4
07:00 1032 30.47 861 25.43 -4.9 23.2 56 -12.3 9.8
07:05 1032 30.47 861 25.43 -4.2 24.5 51 -12.8 9
07:10 1032 30.47 861 25.43 -3.7 25.3 53 -12 10.4
07:15 1032 30.47 861 25.43 -4.7 23.6 56 -12.1 10.3
07:20 1032 30.47 861 25.43 -4.7 23.6 54 -12.5 9.4
07:25 1032 30.47 861 25.43 -4.6 23.7 56 -12.1 10.2
07:30 1032 30.47 861 25.43 -4.1 24.6 53 -12.3 9.8
07:35 1032 30.47 861 25.43 -3.8 25.1 52 -12.2 10
07:40 1032 30.47 861 25.43 -4.3 24.3 55 -12 10.5
07:45 1032 30.47 861 25.43 -4.4 24.1 58 -11.5 11.3
07:50 1032 30.47 861 25.43 -3.6 25.6 53 -11.9 10.7
07:55 1032 30.47 861 25.43 -3.6 25.6 55 -11.3 11.7
08:00 1032 30.47 861 25.43 -3.7 25.4 54 -11.7 11
08:05 1032 30.47 861 25.43 -3.6 25.5 53 -11.8 10.7
08:10 1032 30.47 861 25.43 -4.3 24.3 56 -11.8 10.8
08:15 1032 30.47 861 25.43 -4.8 23.3 55 -12.6 9.4
08:20 1032 30.47 861 25.43 -4.8 23.4 56 -12.4 9.7
08:25 1032 30.47 861 25.43 -4.9 23.2 56 -12.4 9.7
08:30 1032 30.47 861 25.43 -5.3 22.5 56 -12.7 9.1
08:35 1032 30.47 861 25.43 -5.4 22.3 58 -12.3 9.8
08:40 1032 30.47 861 25.43 -5 22.9 56 -12.5 9.5
08:45 1032 30.47 861 25.43 -5 23.1 56 -12.4 9.7
08:50 1032 30.47 861 25.43 -4.7 23.6 54 -12.6 9.4
08:55 1032 30.47 861 25.43 -3.9 24.9 49 -13.1 8.4
09:00 1032 30.47 861 25.43 -2.7 27.1 49 -12.1 10.2
09:05 1032 30.47 861 25.43 -2.7 27.1 52 -11.4 11.5
09:10 1032 30.47 861 25.43 -2.8 26.9 52 -11.5 11.3
09:15 1032 30.47 861 25.43 -2.7 27.1 51 -11.5 11.3
09:20 1032 30.47 861 25.43 -2.7 27.1 51 -11.6 11.2
09:25 1032 30.47 861 25.43 -2.4 27.6 49 -11.6 11.1
09:30 1032 30.47 861 25.43 -2.2 28 49 -11.6 11.2
09:35 1032 30.47 861 25.43 -1.7 29 46 -11.8 10.8
09:40 1032 30.47 861 25.43 -1.1 30.1 46 -11.2 11.8
09:45 1032 30.47 861 25.43 -0.4 31.3 45 -11 12.2
09:50 1032 30.47 861 25.43 -0.5 31.1 44 -11.3 11.6
09:55 1032 30.47 861 25.43 -0.2 31.6 43 -11.3 11.6
10:00 1032 30.47 861 25.43 0 32 43 -11.1 12.1
10:05 1032 30.47 861 25.43 -0 32 42 -11.5 11.4
10:10 1032 30.47 861 25.43 -0.2 31.6 43 -11.3 11.7
10:15 1032 30.47 861 25.43 -0.2 31.6 43 -11.3 11.7
10:20 1032 30.47 861 25.43 -0.1 31.9 44 -11 12.2
10:25 1032 30.47 861 25.43 0.3 32.6 42 -11 12.2
10:30 1032 30.47 861 25.43 0.8 33.4 42 -10.8 12.6
10:35 1032 30.47 861 25.43 1.2 34.1 40 -11 12.2
10:40 1032 30.47 861 25.43 1.2 34.1 40 -11.1 12.1
10:45 1032 30.47 862 25.45 1.7 35.1 38 -11.2 11.8
10:50 1032 30.47 862 25.45 1.8 35.2 37 -11.5 11.3
10:55 1032 30.47 862 25.45 1.6 34.9 34 -12.5 9.5
11:00 1032 30.47 861 25.43 2.1 35.7 38 -10.8 12.5
11:05 1032 30.47 861 25.43 2.3 36.1 38 -10.7 12.8
11:10 1032 30.47 861 25.43 2.7 36.8 36 -10.9 12.3
11:15 1032 30.47 861 25.43 2.6 36.8 35 -11.2 11.8
11:20 1032 30.47 861 25.43 2.9 37.1 35 -11 12.2
11:25 1032 30.47 861 25.43 2.5 36.6 38 -10.2 13.6
11:30 1032 30.47 861 25.43 2.8 37 38 -10.3 13.5
11:35 1032 30.47 861 25.43 2.9 37.2 37 -10.4 13.3
11:40 1032 30.47 861 25.43 2.9 37.1 38 -10.1 13.8
11:45 1032 30.47 861 25.43 3.1 37.6 37 -10.2 13.7
11:50 1032 30.47 861 25.43 2.8 37 39 -9.7 14.5
11:55 1032 30.47 861 25.43 2.6 36.7 41 -9.5 14.9
12:00 1032 30.47 861 25.43 2.4 36.3 42 -9.3 15.3
12:05 1032 30.47 861 25.43 2.3 36.2 40 -9.9 14.1
12:10 1032 30.47 861 25.43 2.8 37.1 39 -9.8 14.3
12:15 1032 30.47 861 25.43 3.2 37.8 39 -9.5 15
12:20 1032 30.47 861 25.43 3.4 38.1 41 -8.6 16.5
12:25 1032 30.47 861 25.43 3.2 37.7 40 -9.2 15.4
12:30 1032 30.47 861 25.43 2.9 37.2 39 -9.8 14.4
12:35 1032 30.47 861 25.43 3.3 37.9 39 -9.5 14.9
12:40 1032 30.47 861 25.43 2.7 36.9 39 -9.8 14.4
12:45 1032 30.47 861 25.43 2.4 36.3 38 -10.4 13.2
12:50 1032 30.47 861 25.43 2.8 37 38 -10.2 13.7
12:55 1032 30.47 861 25.43 2.9 37.3 38 -10 14
13:00 1032 30.47 861 25.43 2.6 36.7 40 -9.8 14.4
13:05 1032 30.47 861 25.43 2.1 35.8 41 -9.8 14.3
13:10 1032 30.47 861 25.43 2.1 35.8 40 -10.1 13.8
13:15 1032 30.47 861 25.43 2 35.6 42 -9.6 14.8
13:20 1031 30.45 861 25.43 1.2 34.1 49 -8.5 16.8
13:25 1032 30.47 861 25.43 0.9 33.6 46 -9.4 15.2
13:30 1031 30.45 861 25.43 1.6 34.9 44 -9.5 14.9
13:35 1031 30.45 861 25.43 1.7 35.1 44 -9.3 15.2
13:40 1031 30.45 860 25.4 1.4 34.6 43 -9.8 14.3
13:45 1031 30.45 860 25.4 1.3 34.3 43 -10 14
13:50 1031 30.45 861 25.43 2.6 36.7 40 -9.7 14.5
13:55 1031 30.45 861 25.43 3.6 38.5 38 -9.4 15.1
14:00 1031 30.45 861 25.43 3.7 38.7 38 -9.3 15.3
14:05 1031 30.45 860 25.4 2.9 37.2 39 -9.8 14.4
14:10 1031 30.45 860 25.4 2.9 37.2 37 -10.3 13.4
14:15 1031 30.45 860 25.4 3.4 38.1 36 -10.5 13.2
14:20 1031 30.45 860 25.4 3.9 39.1 35 -10.1 13.8
14:25 1031 30.45 860 25.4 4.2 39.5 36 -9.5 14.9
14:30 1031 30.45 860 25.4 3.2 37.8 36 -10.6 12.9
14:35 1031 30.45 860 25.4 2.6 36.7 38 -10.5 13.1
14:40 1031 30.45 860 25.4 2.5 36.6 38 -10.5 13.2
14:45 1031 30.45 860 25.4 1.7 35.1 43 -9.7 14.6
14:50 1031 30.45 860 25.4 1.5 34.7 40 -10.6 13
14:55 1031 30.45 860 25.4 1.8 35.2 40 -10.4 13.4
15:00 1031 30.45 860 25.4 2.4 36.4 37 -10.7 12.7
15:05 1031 30.45 860 25.4 2.4 36.2 38 -10.5 13
15:10 1031 30.45 860 25.4 1.8 35.2 40 -10.5 13.1
15:15 1031 30.45 860 25.4 1.5 34.7 41 -10.4 13.3
15:20 1031 30.45 860 25.4 1.5 34.7 39 -10.9 12.4
15:25 1031 30.45 860 25.4 1.4 34.5 40 -10.9 12.4
15:30 1031 30.45 860 25.4 1.3 34.4 40 -11 12.2
15:35 1031 30.45 860 25.4 1.5 34.7 37 -11.8 10.8
15:40 1031 30.45 860 25.4 1.5 34.8 39 -10.9 12.4
15:45 1031 30.45 860 25.4 1.4 34.5 39 -11.2 11.9
15:50 1031 30.45 860 25.4 1.1 33.9 42 -10.5 13
15:55 1031 30.45 860 25.4 0.6 33.1 43 -10.5 13.1
16:00 1030 30.42 860 25.4 0.3 32.5 46 -10.1 13.8
16:05 1030 30.42 860 25.4 -0 32 49 -9.5 14.9
16:10 1030 30.42 859 25.37 0 32 48 -9.6 14.7
16:15 1030 30.42 859 25.37 0.2 32.4 47 -9.7 14.5
16:20 1030 30.42 859 25.37 0.5 32.9 48 -9.2 15.4
16:25 1030 30.42 859 25.37 0.5 32.9 50 -8.7 16.3
16:30 1030 30.42 859 25.37 0.3 32.5 45 -10.4 13.3
16:35 1030 30.42 859 25.37 0.1 32.1 43 -11 12.2
16:40 1030 30.42 860 25.4 0.1 32.2 44 -10.8 12.5
16:45 1030 30.42 860 25.4 -0.2 31.6 49 -9.6 14.8
16:50 1030 30.42 860 25.4 -0.8 30.6 51 -9.8 14.4
16:55 1030 30.42 859 25.37 -0.9 30.5 49 -10.2 13.7
17:00 1030 30.42 860 25.4 -0.8 30.5 49 -10.2 13.6
17:05 1030 30.42 860 25.4 -0.8 30.5 48 -10.5 13
17:10 1030 30.42 860 25.4 -0.9 30.4 49 -10.2 13.6
17:15 1030 30.42 860 25.4 -0.7 30.8 46 -10.8 12.5
17:20 1030 30.42 860 25.4 -0.5 31.2 48 -10.1 13.8
17:25 1030 30.42 860 25.4 -0.1 31.8 49 -9.6 14.7
17:30 1030 30.42 860 25.4 -0 31.9 48 -9.8 14.3
17:35 1030 30.42 860 25.4 0.5 33 41 -11.4 11.5
17:40 1030 30.42 860 25.4 1.3 34.4 37 -11.7 10.9
17:45 1030 30.42 860 25.4 1.6 35 38 -11.3 11.7
17:50 1030 30.42 860 25.4 1.4 34.5 41 -10.5 13.1
17:55 1030 30.42 860 25.4 0.8 33.4 44 -10.2 13.6
18:00 1030 30.42 860 25.4 0.4 32.7 46 -9.8 14.3
18:05 1031 30.45 860 25.4 -0.4 31.3 53 -8.8 16.2
18:10 1031 30.45 860 25.4 -1.4 29.6 59 -8.5 16.8
18:15 1031 30.45 860 25.4 -2.1 28.2 61 -8.6 16.6
18:20 1031 30.45 860 25.4 -2.1 28.2 59 -9 15.7
18:25 1031 30.45 860 25.4 -1.2 29.9 54 -9.4 15
18:30 1031 30.45 860 25.4 -0.9 30.3 52 -9.6 14.7
18:35 1031 30.45 860 25.4 -0.8 30.6 50 -10 14.1
18:40 1031 30.45 860 25.4 -0.7 30.8 50 -9.9 14.2
18:45 1031 30.45 860 25.4 -0.5 31.2 52 -9.2 15.5
18:50 1031 30.45 860 25.4 -0.8 30.5 56 -8.6 16.6
18:55 1031 30.45 860 25.4 -1 30.3 52 -9.7 14.5
19:00 1031 30.45 860 25.4 -0.5 31.1 50 -9.7 14.6
19:05 1031 30.45 860 25.4 -0.1 31.7 54 -8.4 16.8
19:10 1031 30.45 860 25.4 -1 30.2 56 -8.8 16.2
19:15 1031 30.45 860 25.4 -1.4 29.4 57 -8.9 15.9
19:20 1031 30.45 860 25.4 -1.6 29.1 57 -9.1 15.6
19:25 1031 30.45 860 25.4 -1.9 28.6 59 -9 15.8
19:30 1031 30.45 860 25.4 -1.9 28.6 58 -9.1 15.6
19:35 1031 30.45 860 25.4 -1.6 29.2 56 -9.3 15.3
19:40 1031 30.45 860 25.4 -1.4 29.5 59 -8.5 16.7
19:45 1031 30.45 860 25.4 -1.4 29.4 56 -9.2 15.5
19:50 1031 30.45 860 25.4 -1.1 30 55 -9 15.8
19:55 1031 30.45 860 25.4 -1.2 29.8 56 -8.8 16.1
20:00 1031 30.45 860 25.4 -1.2 29.9 57 -8.8 16.2
20:05 1031 30.45 860 25.4 -1.4 29.5 57 -8.7 16.3
20:10 1031 30.45 860 25.4 -1.3 29.7 53 -9.6 14.6
20:15 1031 30.45 860 25.4 -0.9 30.5 51 -9.9 14.2
20:20 1031 30.45 860 25.4 -0.6 30.9 51 -9.7 14.6
20:25 1031 30.45 860 25.4 -1 30.2 53 -9.5 14.9
20:30 1031 30.45 860 25.4 -1.3 29.6 53 -9.8 14.4
20:35 1031 30.45 861 25.43 -1.6 29.2 53 -9.9 14.2
20:40 1031 30.45 860 25.4 -1.7 28.9 56 -9.4 15.1
20:45 1031 30.45 861 25.43 -1.5 29.2 56 -9.3 15.3
20:50 1031 30.45 861 25.43 -1.2 29.9 52 -9.9 14.2
20:55 1031 30.45 861 25.43 -1 30.1 51 -10 14
21:00 1031 30.45 861 25.43 -1.1 30.1 52 -9.8 14.3
21:05 1031 30.45 861 25.43 -1.4 29.4 52 -10 14
21:10 1031 30.45 861 25.43 -1.7 29 54 -9.9 14.2
21:15 1031 30.45 861 25.43 -1.7 29 53 -10 14
21:20 1031 30.45 861 25.43 -1.5 29.3 53 -10 14
21:25 1031 30.45 861 25.43 -1.3 29.6 51 -10.2 13.7
21:30 1031 30.45 861 25.43 -1.3 29.7 51 -10.2 13.7
21:35 1032 30.47 861 25.43 -1.1 30.1 51 -10 14
21:40 1032 30.47 861 25.43 -1.4 29.5 51 -10.2 13.7
21:45 1032 30.47 861 25.43 -1.2 29.8 50 -10.4 13.3
21:50 1031 30.45 861 25.43 -1 30.2 50 -10.2 13.6
21:55 1031 30.45 861 25.43 -1 30.2 48 -10.7 12.8
22:00 1031 30.45 861 25.43 -0.4 31.3 46 -10.6 12.9
22:05 1031 30.45 861 25.43 -0.1 31.8 45 -10.7 12.8
22:10 1032 30.47 861 25.43 -0.3 31.5 46 -10.6 12.9
22:15 1032 30.47 861 25.43 -0.5 31 47 -10.7 12.8
22:20 1032 30.47 861 25.43 -0.8 30.6 47 -10.8 12.6
22:25 1032 30.47 861 25.43 -0.7 30.7 46 -10.9 12.4
22:30 1032 30.47 861 25.43 -0.7 30.8 47 -10.6 13
22:35 1032 30.47 861 25.43 -1 30.2 49 -10.4 13.2
22:40 1032 30.47 861 25.43 -1.5 29.2 51 -10.4 13.3
22:45 1032 30.47 861 25.43 -1.9 28.5 52 -10.5 13.1
22:50 1032 30.47 861 25.43 -2 28.4 50 -11.1 12.1
22:55 1032 30.47 861 25.43 -1.9 28.6 49 -11.2 11.8
23:00 1032 30.47 861 25.43 -1.7 28.9 51 -10.6 12.9
23:05 1032 30.47 861 25.43 -1.9 28.5 53 -10.4 13.3
23:10 1032 30.47 861 25.43 -2.1 28.1 54 -10.3 13.5
23:15 1032 30.47 861 25.43 -2.1 28.3 54 -10.3 13.5
23:20 1032 30.47 861 25.43 -2 28.5 51 -10.8 12.5
23:25 1032 30.47 861 25.43 -1.8 28.7 52 -10.3 13.4
23:30 1032 30.47 861 25.43 -2.3 27.9 54 -10.3 13.4
23:35 1032 30.47 861 25.43 -2.1 28.2 50 -11.2 11.9
23:40 1032 30.47 861 25.43 -1.7 28.9 48 -11.2 11.8
23:45 1032 30.47 861 25.43 -1.6 29.2 49 -11 12.1
23:50 1032 30.47 861 25.43 -1.6 29.1 49 -10.9 12.3
23:55 1032 30.47 861 25.43 -2.4 27.7 54 -10.5 13.1
24:00 1032 30.47 861 25.43 -3.2 26.3 55 -11.1 12